createdAt,value
2023-06-13T00:00:49.939Z,12.70
2023-06-13T00:01:50.024Z,10.40
2023-06-13T00:02:51.032Z,9.40
2023-06-13T00:03:49.932Z,10.10
2023-06-13T00:04:50.909Z,11.20
2023-06-13T00:05:49.911Z,11.90
2023-06-13T00:06:49.908Z,11.00
2023-06-13T00:07:49.925Z,10.30
2023-06-13T00:08:49.875Z,10.00
2023-06-13T00:09:49.919Z,11.60
2023-06-13T00:10:49.883Z,12.30
2023-06-13T00:11:49.862Z,11.20
2023-06-13T00:12:49.843Z,10.70
2023-06-13T00:13:49.841Z,12.20
2023-06-13T00:14:49.856Z,9.80
2023-06-13T00:15:49.842Z,10.50
2023-06-13T00:16:49.826Z,10.80
2023-06-13T00:17:50.055Z,11.20
2023-06-13T00:18:49.875Z,12.10
2023-06-13T00:19:49.950Z,12.60
2023-06-13T00:20:49.794Z,13.80
2023-06-13T00:21:49.815Z,14.40
2023-06-13T00:22:49.809Z,14.40
2023-06-13T00:23:49.792Z,14.40
2023-06-13T00:24:49.805Z,14.20
2023-06-13T00:25:50.296Z,15.00
2023-06-13T00:26:49.780Z,15.20
2023-06-13T00:27:49.768Z,13.90
2023-06-13T00:28:49.761Z,14.30
2023-06-13T00:29:49.742Z,13.90
2023-06-13T00:30:49.752Z,15.70
2023-06-13T00:31:49.739Z,15.10
2023-06-13T00:32:49.784Z,13.70
2023-06-13T00:33:49.754Z,15.10
2023-06-13T00:34:49.718Z,15.90
2023-06-13T00:35:49.703Z,14.70
2023-06-13T00:36:49.722Z,14.60
2023-06-13T00:37:49.833Z,14.90
2023-06-13T00:38:49.783Z,14.90
2023-06-13T00:39:49.699Z,13.90
2023-06-13T00:40:49.679Z,14.60
2023-06-13T00:41:49.687Z,14.30
2023-06-13T00:42:49.678Z,14.40
2023-06-13T00:43:49.645Z,14.60
2023-06-13T00:44:49.681Z,16.00
2023-06-13T00:45:50.164Z,16.70
2023-06-13T00:46:49.753Z,15.50
2023-06-13T00:47:49.652Z,14.80
2023-06-13T00:48:49.616Z,15.80
2023-06-13T00:49:49.630Z,14.70
2023-06-13T00:50:49.639Z,14.60
2023-06-13T00:51:49.618Z,14.90
2023-06-13T00:52:49.626Z,17.60
2023-06-13T00:53:49.594Z,17.70
2023-06-13T00:54:49.600Z,17.40
2023-06-13T00:55:49.585Z,17.00
2023-06-13T00:56:49.550Z,17.10
2023-06-13T00:57:49.547Z,16.20
2023-06-13T00:58:49.545Z,14.30
2023-06-13T00:59:49.544Z,14.70
2023-06-13T01:00:49.549Z,12.90
2023-06-13T01:01:49.557Z,11.50
2023-06-13T01:02:49.590Z,9.70
2023-06-13T01:03:49.547Z,10.60
2023-06-13T01:04:49.576Z,9.80
2023-06-13T01:05:49.504Z,11.40
2023-06-13T01:06:49.496Z,10.40
2023-06-13T01:07:49.533Z,9.80
2023-06-13T01:08:49.482Z,9.30
2023-06-13T01:09:49.483Z,9.30
2023-06-13T01:10:49.480Z,9.60
2023-06-13T01:11:50.494Z,10.40
2023-06-13T01:12:49.484Z,12.20
2023-06-13T01:13:49.476Z,13.50
2023-06-13T01:14:49.446Z,13.30
2023-06-13T01:15:49.426Z,13.80
2023-06-13T01:16:49.560Z,14.20
2023-06-13T01:17:49.518Z,13.50
2023-06-13T01:18:49.429Z,14.60
2023-06-13T01:19:49.422Z,13.60
2023-06-13T01:20:49.434Z,13.10
2023-06-13T01:21:49.405Z,13.20
2023-06-13T01:22:49.404Z,13.80
2023-06-13T01:23:49.449Z,14.10
2023-06-13T01:24:49.364Z,15.30
2023-06-13T01:25:49.373Z,15.50
2023-06-13T01:26:49.359Z,16.00
2023-06-13T01:27:49.362Z,16.20
2023-06-13T01:28:49.361Z,17.60
2023-06-13T01:29:49.349Z,19.20
2023-06-13T01:30:49.354Z,20.70
2023-06-13T01:31:49.386Z,18.80
2023-06-13T01:32:49.376Z,21.00
2023-06-13T01:33:49.333Z,19.80
2023-06-13T01:34:49.297Z,21.60
2023-06-13T01:35:49.320Z,19.80
2023-06-13T01:36:49.309Z,18.50
2023-06-13T01:37:49.316Z,19.80
2023-06-13T01:38:49.292Z,18.30
2023-06-13T01:39:49.268Z,15.00
2023-06-13T01:40:49.269Z,15.60
2023-06-13T01:41:49.287Z,15.50
2023-06-13T01:42:49.295Z,17.20
2023-06-13T01:43:49.322Z,17.20
2023-06-13T01:44:49.219Z,17.10
2023-06-13T01:45:49.296Z,16.50
2023-06-13T01:46:49.246Z,17.80
2023-06-13T01:47:49.250Z,17.10
2023-06-13T01:48:49.216Z,16.00
2023-06-13T01:49:49.238Z,15.70
2023-06-13T01:50:49.191Z,17.00
2023-06-13T01:51:49.210Z,16.20
2023-06-13T01:52:49.220Z,18.40
2023-06-13T01:53:49.172Z,19.00
2023-06-13T01:54:49.165Z,18.20
2023-06-13T01:55:49.160Z,17.60
2023-06-13T01:56:49.165Z,19.80
2023-06-13T01:57:49.172Z,21.60
2023-06-13T01:58:49.154Z,21.80
2023-06-13T01:59:49.110Z,20.70
2023-06-13T02:00:49.120Z,21.40
2023-06-13T02:01:50.130Z,21.10
2023-06-13T02:02:49.217Z,19.40
2023-06-13T02:03:49.193Z,20.60
2023-06-13T02:04:49.098Z,19.60
2023-06-13T02:05:49.105Z,17.70
2023-06-13T02:06:49.089Z,17.50
2023-06-13T02:07:49.087Z,14.50
2023-06-13T02:08:49.100Z,15.10
2023-06-13T02:09:49.105Z,15.40
2023-06-13T02:10:49.122Z,15.10
2023-06-13T02:11:49.050Z,15.30
2023-06-13T02:12:49.079Z,13.90
2023-06-13T02:13:49.022Z,13.60
2023-06-13T02:14:49.018Z,13.80
2023-06-13T02:15:49.024Z,12.60
2023-06-13T02:16:49.075Z,13.80
2023-06-13T02:17:49.097Z,13.60
2023-06-13T02:18:49.045Z,12.20
2023-06-13T02:19:49.032Z,12.70
2023-06-13T02:20:48.979Z,14.20
2023-06-13T02:21:48.974Z,12.80
2023-06-13T02:22:48.988Z,14.30
2023-06-13T02:23:48.993Z,14.10
2023-06-13T02:24:48.958Z,13.50
2023-06-13T02:25:48.961Z,12.80
2023-06-13T02:26:48.969Z,13.00
2023-06-13T02:27:48.917Z,13.10
2023-06-13T02:28:48.972Z,10.10
2023-06-13T02:29:48.931Z,12.80
2023-06-13T02:30:48.922Z,9.40
2023-06-13T02:31:49.063Z,10.60
2023-06-13T02:32:48.941Z,11.50
2023-06-13T02:33:48.882Z,9.80
2023-06-13T02:34:48.898Z,9.30
2023-06-13T02:35:48.871Z,9.30
2023-06-13T02:36:48.877Z,10.00
2023-06-13T02:37:48.864Z,10.60
2023-06-13T02:38:48.850Z,10.60
2023-06-13T02:39:48.873Z,9.50
2023-06-13T02:40:48.879Z,9.80
2023-06-13T02:41:48.828Z,10.30
2023-06-13T02:42:48.887Z,9.40
2023-06-13T02:43:48.824Z,10.30
2023-06-13T02:44:48.816Z,9.60
2023-06-13T02:45:48.814Z,10.40
2023-06-13T02:46:48.790Z,10.00
2023-06-13T02:47:48.913Z,12.00
2023-06-13T02:48:48.918Z,9.40
2023-06-13T02:49:48.783Z,9.00
2023-06-13T02:50:48.806Z,12.20
2023-06-13T02:51:48.769Z,9.50
2023-06-13T02:52:51.688Z,11.60
2023-06-13T02:53:48.800Z,11.60
2023-06-13T02:54:48.755Z,10.80
2023-06-13T02:55:48.737Z,10.30
2023-06-13T02:56:48.804Z,11.40
2023-06-13T02:57:48.739Z,10.50
2023-06-13T02:58:48.737Z,11.50
2023-06-13T02:59:48.715Z,10.80
2023-06-13T03:00:48.761Z,11.70
2023-06-13T03:01:48.694Z,11.30
2023-06-13T03:02:48.776Z,11.70
2023-06-13T03:03:48.937Z,11.40
2023-06-13T03:04:48.694Z,12.30
2023-06-13T03:05:48.827Z,13.30
2023-06-13T03:06:48.688Z,12.30
2023-06-13T03:07:48.690Z,10.70
2023-06-13T03:08:48.678Z,10.80
2023-06-13T03:09:48.708Z,11.30
2023-06-13T03:10:48.623Z,11.40
2023-06-13T03:11:48.623Z,12.90
2023-06-13T03:12:48.624Z,11.60
2023-06-13T03:13:48.652Z,11.60
2023-06-13T03:14:48.636Z,12.30
2023-06-13T03:15:48.664Z,12.30
2023-06-13T03:16:48.697Z,12.90
2023-06-13T03:17:48.649Z,12.40
2023-06-13T03:18:48.600Z,14.30
2023-06-13T03:19:49.936Z,13.50
2023-06-13T03:20:48.565Z,12.50
2023-06-13T03:21:48.566Z,12.30
2023-06-13T03:22:48.565Z,14.00
2023-06-13T03:23:48.634Z,15.00
2023-06-13T03:24:48.541Z,12.10
2023-06-13T03:25:48.525Z,13.10
2023-06-13T03:26:48.568Z,14.00
2023-06-13T03:27:48.574Z,12.70
2023-06-13T03:28:48.568Z,12.60
2023-06-13T03:29:48.543Z,11.10
2023-06-13T03:30:48.532Z,12.60
2023-06-13T03:31:48.525Z,13.10
2023-06-13T03:32:48.584Z,11.30
2023-06-13T03:33:48.492Z,11.50
2023-06-13T03:34:48.506Z,13.10
2023-06-13T03:35:48.478Z,12.60
2023-06-13T03:36:48.485Z,11.20
2023-06-13T03:37:48.468Z,11.20
2023-06-13T03:38:48.519Z,11.40
2023-06-13T03:39:48.466Z,11.80
2023-06-13T03:40:48.450Z,12.20
2023-06-13T03:41:48.451Z,11.10
2023-06-13T03:42:48.423Z,10.70
2023-06-13T03:43:48.445Z,11.70
2023-06-13T03:44:48.486Z,11.40
2023-06-13T03:45:48.441Z,11.20
2023-06-13T03:46:48.405Z,12.40
2023-06-13T03:47:48.503Z,13.10
2023-06-13T03:48:48.555Z,13.20
2023-06-13T03:49:48.385Z,14.30
2023-06-13T03:50:48.382Z,14.60
2023-06-13T03:51:48.366Z,14.30
2023-06-13T03:52:49.362Z,13.90
2023-06-13T03:53:48.415Z,15.00
2023-06-13T03:54:48.356Z,14.70
2023-06-13T03:55:48.321Z,13.60
2023-06-13T03:56:48.308Z,14.30
2023-06-13T03:57:48.326Z,14.30
2023-06-13T03:58:48.339Z,13.70
2023-06-13T03:59:48.304Z,14.00
2023-06-13T04:00:48.290Z,13.90
2023-06-13T04:01:48.308Z,16.60
2023-06-13T04:02:48.354Z,16.90
2023-06-13T04:03:48.438Z,17.60
2023-06-13T04:04:48.277Z,25.60
2023-06-13T04:05:48.292Z,27.80
2023-06-13T04:06:48.249Z,24.20
2023-06-13T04:07:48.303Z,22.00
2023-06-13T04:08:48.304Z,19.50
2023-06-13T04:09:48.333Z,15.10
2023-06-13T04:10:48.260Z,13.40
2023-06-13T04:11:48.224Z,14.70
2023-06-13T04:12:48.236Z,12.20
2023-06-13T04:13:48.228Z,11.00
2023-06-13T04:14:48.292Z,10.40
2023-06-13T04:15:48.215Z,12.20
2023-06-13T04:16:48.246Z,10.20
2023-06-13T04:17:48.531Z,10.70
2023-06-13T04:18:49.191Z,20.80
2023-06-13T04:19:48.182Z,15.10
2023-06-13T04:20:48.175Z,21.70
2023-06-13T04:21:48.208Z,16.20
2023-06-13T04:22:48.180Z,15.80
2023-06-13T04:23:48.150Z,21.00
2023-06-13T04:24:48.252Z,15.70
2023-06-13T04:25:48.126Z,13.20
2023-06-13T04:26:48.120Z,11.70
2023-06-13T04:27:48.324Z,10.70
2023-06-13T04:28:48.109Z,10.90
2023-06-13T04:29:48.096Z,11.70
2023-06-13T04:30:48.120Z,10.00
2023-06-13T04:31:48.191Z,10.30
2023-06-13T04:32:49.129Z,11.90
2023-06-13T04:33:48.209Z,9.70
2023-06-13T04:34:48.155Z,14.00
2023-06-13T04:35:48.084Z,10.60
2023-06-13T04:36:49.041Z,11.70
2023-06-13T04:37:48.100Z,11.40
2023-06-13T04:38:48.046Z,11.40
2023-06-13T04:39:48.013Z,10.80
2023-06-13T04:40:48.083Z,10.00
2023-06-13T04:41:48.040Z,9.60
2023-06-13T04:42:48.006Z,10.50
2023-06-13T04:43:48.001Z,9.20
2023-06-13T04:44:48.055Z,10.70
2023-06-13T04:45:48.057Z,14.00
2023-06-13T04:46:47.975Z,11.00
2023-06-13T04:47:56.238Z,9.20
2023-06-13T04:48:49.942Z,9.90
2023-06-13T04:49:47.978Z,9.30
2023-06-13T04:50:48.101Z,11.90
2023-06-13T04:51:47.957Z,10.00
2023-06-13T04:52:47.945Z,11.10
2023-06-13T04:53:47.913Z,10.70
2023-06-13T04:54:47.925Z,9.20
2023-06-13T04:55:49.013Z,10.60
2023-06-13T04:56:47.928Z,10.50
2023-06-13T04:57:48.005Z,9.10
2023-06-13T04:58:47.925Z,10.00
2023-06-13T04:59:47.886Z,10.70
2023-06-13T05:00:47.943Z,10.70
2023-06-13T05:01:48.436Z,10.20
2023-06-13T05:02:50.779Z,12.40
2023-06-13T05:03:47.897Z,8.90
2023-06-13T05:04:47.892Z,9.10
2023-06-13T05:05:47.910Z,8.30
2023-06-13T05:06:47.847Z,8.70
2023-06-13T05:07:47.831Z,9.70
2023-06-13T05:08:47.881Z,11.10
2023-06-13T05:09:47.844Z,9.60
2023-06-13T05:10:47.805Z,10.50
2023-06-13T05:11:47.815Z,12.10
2023-06-13T05:12:47.793Z,9.80
2023-06-13T05:13:47.805Z,10.60
2023-06-13T05:14:47.792Z,10.60
2023-06-13T05:15:47.867Z,11.20
2023-06-13T05:16:47.768Z,8.10
2023-06-13T05:17:47.765Z,9.00
2023-06-13T05:18:48.340Z,9.20
2023-06-13T05:19:47.764Z,10.70
2023-06-13T05:20:48.761Z,12.30
2023-06-13T05:21:47.796Z,10.70
2023-06-13T05:22:47.744Z,9.80
2023-06-13T05:23:47.839Z,10.30
2023-06-13T05:24:47.717Z,10.30
2023-06-13T05:25:47.701Z,10.30
2023-06-13T05:26:47.741Z,11.00
2023-06-13T05:27:47.729Z,11.40
2023-06-13T05:28:47.694Z,11.80
2023-06-13T05:29:47.695Z,10.60
2023-06-13T05:30:47.749Z,10.80
2023-06-13T05:31:47.749Z,10.90
2023-06-13T05:32:47.774Z,10.90
2023-06-13T05:33:47.649Z,11.00
2023-06-13T05:34:47.668Z,11.80
2023-06-13T05:35:57.201Z,10.30
2023-06-13T05:36:49.679Z,9.70
2023-06-13T05:37:47.657Z,12.20
2023-06-13T05:38:47.669Z,11.60
2023-06-13T05:39:47.620Z,10.20
2023-06-13T05:40:47.612Z,10.20
2023-06-13T05:41:47.631Z,11.70
2023-06-13T05:42:47.627Z,9.60
2023-06-13T05:43:47.623Z,10.90
2023-06-13T05:44:47.610Z,10.40
2023-06-13T05:45:47.696Z,12.40
2023-06-13T05:46:47.704Z,12.90
2023-06-13T05:47:47.674Z,13.30
2023-06-13T05:48:47.715Z,12.10
2023-06-13T05:49:47.636Z,11.20
2023-06-13T05:50:47.613Z,11.00
2023-06-13T05:51:47.624Z,11.70
2023-06-13T05:52:47.556Z,11.50
2023-06-13T05:53:47.699Z,14.30
2023-06-13T05:54:47.518Z,11.50
2023-06-13T05:55:47.593Z,13.20
2023-06-13T05:56:47.513Z,11.00
2023-06-13T05:57:47.532Z,11.20
2023-06-13T05:58:47.555Z,11.00
2023-06-13T05:59:47.537Z,13.00
2023-06-13T06:00:47.518Z,11.30
2023-06-13T06:01:47.491Z,11.30
2023-06-13T06:02:47.767Z,11.40
2023-06-13T06:03:47.548Z,13.40
2023-06-13T06:04:47.574Z,12.90
2023-06-13T06:05:47.478Z,11.70
2023-06-13T06:06:47.442Z,11.90
2023-06-13T06:07:47.449Z,12.80
2023-06-13T06:08:47.446Z,12.50
2023-06-13T06:09:47.435Z,15.20
2023-06-13T06:10:47.444Z,11.30
2023-06-13T06:11:47.440Z,11.50
2023-06-13T06:12:47.407Z,11.60
2023-06-13T06:13:47.425Z,11.80
2023-06-13T06:14:47.400Z,12.20
2023-06-13T06:15:47.441Z,15.60
2023-06-13T06:16:47.413Z,12.50
2023-06-13T06:17:47.534Z,13.40
2023-06-13T06:18:47.613Z,14.00
2023-06-13T06:19:47.379Z,19.40
2023-06-13T06:20:47.400Z,22.30
2023-06-13T06:21:47.373Z,22.00
2023-06-13T06:22:47.408Z,22.60
2023-06-13T06:23:47.408Z,22.60
2023-06-13T06:24:47.328Z,20.00
2023-06-13T06:25:47.330Z,17.80
2023-06-13T06:26:47.336Z,17.10
2023-06-13T06:27:47.347Z,16.40
2023-06-13T06:28:47.347Z,19.30
2023-06-13T06:29:47.299Z,15.80
2023-06-13T06:30:47.325Z,13.50
2023-06-13T06:31:47.275Z,12.80
2023-06-13T06:32:47.314Z,15.80
2023-06-13T06:33:47.286Z,12.10
2023-06-13T06:34:47.291Z,10.70
2023-06-13T06:35:47.272Z,11.50
2023-06-13T06:36:47.328Z,11.90
2023-06-13T06:37:47.253Z,10.20
2023-06-13T06:38:47.295Z,10.10
2023-06-13T06:39:47.228Z,12.50
2023-06-13T06:40:47.282Z,8.40
2023-06-13T06:41:47.248Z,11.30
2023-06-13T06:42:47.227Z,11.90
2023-06-13T06:43:47.213Z,9.70
2023-06-13T06:44:47.256Z,9.60
2023-06-13T06:45:47.230Z,10.60
2023-06-13T06:46:47.246Z,9.60
2023-06-13T06:47:47.233Z,9.10
2023-06-13T06:48:47.223Z,10.70
2023-06-13T06:49:47.170Z,9.90
2023-06-13T06:50:47.170Z,12.40
2023-06-13T06:51:47.175Z,12.50
2023-06-13T06:52:47.251Z,8.90
2023-06-13T06:53:47.136Z,7.70
2023-06-13T06:54:47.154Z,11.90
2023-06-13T06:55:47.141Z,10.40
2023-06-13T06:56:47.166Z,8.50
2023-06-13T06:57:47.130Z,8.70
2023-06-13T06:58:47.119Z,10.90
2023-06-13T06:59:47.105Z,12.10
2023-06-13T07:00:47.191Z,11.50
2023-06-13T07:01:47.135Z,13.60
2023-06-13T07:02:47.143Z,9.50
2023-06-13T07:03:47.120Z,10.90
2023-06-13T07:04:47.063Z,11.50
2023-06-13T07:05:47.117Z,12.00
2023-06-13T07:06:47.095Z,13.00
2023-06-13T07:07:47.064Z,13.20
2023-06-13T07:08:47.060Z,14.00
2023-06-13T07:09:48.039Z,14.80
2023-06-13T07:10:47.463Z,16.70
2023-06-13T07:11:47.026Z,16.30
2023-06-13T07:12:47.019Z,16.50
2023-06-13T07:13:47.053Z,14.70
2023-06-13T07:14:47.054Z,14.00
2023-06-13T07:15:47.054Z,12.30
2023-06-13T07:16:47.072Z,11.60
2023-06-13T07:17:47.036Z,10.60
2023-06-13T07:18:46.969Z,8.70
2023-06-13T07:19:46.992Z,8.00
2023-06-13T07:20:47.032Z,7.50
2023-06-13T07:21:47.069Z,10.20
2023-06-13T07:22:47.005Z,6.20
2023-06-13T07:24:01.530Z,8.80
2023-06-13T07:24:48.972Z,8.40
2023-06-13T07:25:46.965Z,6.40
2023-06-13T07:26:47.012Z,8.10
2023-06-13T07:27:46.996Z,7.70
2023-06-13T07:28:47.944Z,8.20
2023-06-13T07:29:46.953Z,8.60
2023-06-13T07:30:46.926Z,9.40
2023-06-13T07:31:46.968Z,11.90
2023-06-13T07:32:47.000Z,12.10
2023-06-13T07:33:46.921Z,11.70
2023-06-13T07:35:03.915Z,8.90
2023-06-13T07:35:48.868Z,7.70
2023-06-13T07:36:46.853Z,10.30
2023-06-13T07:37:46.936Z,9.90
2023-06-13T07:38:46.946Z,7.10
2023-06-13T07:39:46.875Z,7.50
2023-06-13T07:40:46.856Z,7.00
2023-06-13T07:41:46.826Z,10.90
2023-06-13T07:42:46.841Z,8.30
2023-06-13T07:43:46.834Z,8.20
2023-06-13T07:44:46.909Z,7.20
2023-06-13T07:45:46.866Z,11.70
2023-06-13T07:46:46.805Z,5.20
2023-06-13T07:47:46.849Z,6.70
2023-06-13T07:48:46.781Z,7.00
2023-06-13T07:49:46.821Z,5.70
2023-06-13T07:50:46.794Z,8.00
2023-06-13T07:51:46.766Z,6.30
2023-06-13T07:52:47.074Z,7.40
2023-06-13T07:53:46.787Z,6.50
2023-06-13T07:54:46.769Z,4.70
2023-06-13T07:55:46.822Z,6.70
2023-06-13T07:56:46.724Z,6.20
2023-06-13T07:57:59.113Z,5.60
2023-06-13T07:58:48.732Z,6.10
2023-06-13T07:59:46.739Z,9.10
2023-06-13T08:00:46.711Z,9.40
2023-06-13T08:01:46.759Z,6.70
2023-06-13T08:02:46.948Z,5.80
2023-06-13T08:03:46.905Z,5.30
2023-06-13T08:04:54.052Z,7.30
2023-06-13T08:05:48.681Z,6.70
2023-06-13T08:06:46.649Z,6.90
2023-06-13T08:07:46.661Z,6.20
2023-06-13T08:08:46.654Z,9.50
2023-06-13T08:09:46.689Z,6.80
2023-06-13T08:10:46.643Z,4.90
2023-06-13T08:11:46.630Z,6.70
2023-06-13T08:12:46.628Z,7.90
2023-06-13T08:13:46.655Z,8.60
2023-06-13T08:14:47.432Z,7.00
2023-06-13T08:15:46.651Z,5.70
2023-06-13T08:16:48.500Z,5.10
2023-06-13T08:17:46.625Z,5.40
2023-06-13T08:18:46.631Z,6.90
2023-06-13T08:19:46.572Z,7.50
2023-06-13T08:20:46.636Z,5.20
2023-06-13T08:21:46.580Z,5.00
2023-06-13T08:22:46.568Z,5.50
2023-06-13T08:23:46.605Z,7.00
2023-06-13T08:24:46.561Z,6.90
2023-06-13T08:25:46.738Z,5.30
2023-06-13T08:26:46.551Z,4.80
2023-06-13T08:27:46.534Z,7.00
2023-06-13T08:28:46.553Z,7.00
2023-06-13T08:29:46.527Z,4.90
2023-06-13T08:30:46.569Z,5.70
2023-06-13T08:31:49.815Z,5.80
2023-06-13T08:32:47.721Z,4.60
2023-06-13T08:34:03.023Z,4.50
2023-06-13T08:34:48.521Z,10.40
2023-06-13T08:35:46.552Z,6.30
2023-06-13T08:36:46.504Z,5.30
2023-06-13T08:37:46.478Z,9.80
2023-06-13T08:38:51.275Z,6.40
2023-06-13T08:39:48.476Z,7.30
2023-06-13T08:40:46.439Z,5.30
2023-06-13T08:41:46.458Z,6.70
2023-06-13T08:42:46.522Z,5.00
2023-06-13T08:43:46.445Z,6.60
2023-06-13T08:44:46.460Z,5.70
2023-06-13T08:45:46.432Z,6.90
2023-06-13T08:46:46.521Z,7.90
2023-06-13T08:47:46.618Z,4.80
2023-06-13T08:48:46.447Z,6.00
2023-06-13T08:49:46.449Z,5.90
2023-06-13T08:50:46.493Z,9.80
2023-06-13T08:51:46.375Z,8.10
2023-06-13T08:52:46.383Z,7.00
2023-06-13T08:53:47.364Z,6.50
2023-06-13T08:55:02.229Z,6.40
2023-06-13T08:56:47.355Z,8.10
2023-06-13T08:57:46.348Z,5.60
2023-06-13T08:58:46.328Z,5.50
2023-06-13T08:59:46.351Z,5.70
2023-06-13T09:00:46.318Z,6.30
2023-06-13T09:01:46.314Z,5.10
2023-06-13T09:02:46.434Z,6.60
2023-06-13T09:03:46.381Z,4.30
2023-06-13T09:04:46.305Z,6.10
2023-06-13T09:05:46.346Z,5.60
2023-06-13T09:06:46.309Z,5.00
2023-06-13T09:07:46.289Z,7.00
2023-06-13T09:08:46.288Z,6.20
2023-06-13T09:09:46.264Z,5.90
2023-06-13T09:10:46.268Z,5.00
2023-06-13T09:11:47.383Z,4.10
2023-06-13T09:12:46.274Z,7.60
2023-06-13T09:13:46.283Z,4.40
2023-06-13T09:14:46.328Z,5.80
2023-06-13T09:15:46.277Z,5.50
2023-06-13T09:16:46.394Z,5.40
2023-06-13T09:17:46.368Z,6.20
2023-06-13T09:18:46.253Z,4.90
2023-06-13T09:19:46.196Z,6.20
2023-06-13T09:20:46.198Z,5.40
2023-06-13T09:21:46.193Z,5.30
2023-06-13T09:22:46.207Z,7.70
2023-06-13T09:23:46.223Z,4.80
2023-06-13T09:24:46.161Z,8.30
2023-06-13T09:25:46.182Z,5.70
2023-06-13T09:26:46.183Z,6.80
2023-06-13T09:27:46.152Z,10.50
2023-06-13T09:28:46.175Z,5.40
2023-06-13T09:29:46.156Z,10.10
2023-06-13T09:30:46.164Z,7.80
2023-06-13T09:31:46.134Z,7.20
2023-06-13T09:32:46.183Z,8.20
2023-06-13T09:33:46.211Z,7.40
2023-06-13T09:34:46.127Z,5.10
2023-06-13T09:35:46.119Z,5.20
2023-06-13T09:36:46.161Z,6.20
2023-06-13T09:37:46.172Z,4.60
2023-06-13T09:38:46.084Z,6.30
2023-06-13T09:39:46.709Z,6.20
2023-06-13T09:40:46.134Z,5.10
2023-06-13T09:41:46.113Z,6.20
2023-06-13T09:42:56.421Z,7.70
2023-06-13T09:43:48.072Z,5.20
2023-06-13T09:45:48.074Z,5.30
2023-06-13T09:46:46.083Z,5.80
2023-06-13T09:47:46.214Z,7.10
2023-06-13T09:48:46.099Z,10.80
2023-06-13T09:50:48.057Z,5.70
2023-06-13T09:51:46.085Z,8.90
2023-06-13T09:52:46.010Z,5.10
2023-06-13T09:53:46.037Z,6.20
2023-06-13T09:54:46.050Z,7.10
2023-06-13T09:55:46.013Z,4.80
2023-06-13T09:56:46.022Z,4.40
2023-06-13T09:58:08.017Z,5.30
2023-06-13T09:58:48.022Z,5.60
2023-06-13T09:59:45.977Z,6.10
2023-06-13T10:00:47.001Z,5.00
2023-06-13T10:01:46.038Z,7.10
2023-06-13T10:02:46.026Z,6.90
2023-06-13T10:03:46.019Z,6.40
2023-06-13T10:04:46.018Z,6.10
2023-06-13T10:05:45.945Z,5.20
2023-06-13T10:06:46.131Z,4.40
2023-06-13T10:07:45.966Z,5.80
2023-06-13T10:08:45.945Z,5.40
2023-06-13T10:09:45.986Z,5.00
2023-06-13T10:10:45.938Z,4.40
2023-06-13T10:11:45.935Z,8.80
2023-06-13T10:12:45.942Z,4.60
2023-06-13T10:13:45.934Z,4.60
2023-06-13T10:14:46.040Z,4.80
2023-06-13T10:15:45.991Z,9.80
2023-06-13T10:16:58.711Z,8.70
2023-06-13T10:17:47.946Z,5.00
2023-06-13T10:18:45.934Z,4.50
2023-06-13T10:19:45.946Z,7.40
2023-06-13T10:20:45.976Z,4.80
2023-06-13T10:21:51.885Z,8.40
2023-06-13T10:22:47.891Z,4.90
2023-06-13T10:23:45.892Z,5.90
2023-06-13T10:24:45.890Z,4.70
2023-06-13T10:25:45.845Z,4.60
2023-06-13T10:26:45.849Z,4.90
2023-06-13T10:27:45.861Z,6.00
2023-06-13T10:28:45.849Z,9.10
2023-06-13T10:29:45.836Z,5.20
2023-06-13T10:30:45.859Z,5.80
2023-06-13T10:31:45.862Z,5.30
2023-06-13T10:32:45.857Z,6.50
2023-06-13T10:33:45.837Z,5.60
2023-06-13T10:34:45.815Z,4.70
2023-06-13T10:35:45.839Z,5.00
2023-06-13T10:36:46.199Z,5.40
2023-06-13T10:37:45.785Z,4.10
2023-06-13T10:38:45.783Z,8.70
2023-06-13T10:39:45.794Z,8.80
2023-06-13T10:40:45.767Z,6.00
2023-06-13T10:41:45.778Z,5.20
2023-06-13T10:42:45.767Z,6.10
2023-06-13T10:43:45.781Z,7.00
2023-06-13T10:44:45.819Z,5.80
2023-06-13T10:45:45.772Z,5.80
2023-06-13T10:46:45.733Z,6.30
2023-06-13T10:47:45.740Z,5.30
2023-06-13T10:48:45.738Z,8.00
2023-06-13T10:49:45.823Z,6.40
2023-06-13T10:50:45.736Z,6.60
2023-06-13T10:51:45.699Z,6.50
2023-06-13T10:52:45.714Z,4.80
2023-06-13T10:53:45.696Z,4.70
2023-06-13T10:54:45.703Z,5.00
2023-06-13T10:55:45.732Z,5.70
2023-06-13T10:56:45.691Z,10.70
2023-06-13T10:57:45.693Z,6.90
2023-06-13T10:58:45.674Z,5.20
2023-06-13T10:59:45.678Z,5.30
2023-06-13T11:00:45.674Z,4.50
2023-06-13T11:01:45.700Z,8.40
2023-06-13T11:02:45.710Z,5.30
2023-06-13T11:03:45.712Z,5.30
2023-06-13T11:04:46.632Z,6.20
2023-06-13T11:05:46.933Z,8.00
2023-06-13T11:06:45.610Z,8.10
2023-06-13T11:07:45.725Z,5.90
2023-06-13T11:08:45.668Z,4.30
2023-06-13T11:09:45.587Z,7.90
2023-06-13T11:10:45.646Z,5.20
2023-06-13T11:11:45.617Z,5.40
2023-06-13T11:12:45.718Z,5.80
2023-06-13T11:13:45.575Z,6.60
2023-06-13T11:14:45.639Z,6.20
2023-06-13T11:15:45.550Z,4.80
2023-06-13T11:16:45.604Z,6.90
2023-06-13T11:17:47.149Z,5.60
2023-06-13T11:18:45.614Z,4.90
2023-06-13T11:19:45.522Z,5.20
2023-06-13T11:20:45.513Z,5.50
2023-06-13T11:21:45.524Z,6.00
2023-06-13T11:22:45.536Z,5.90
2023-06-13T11:23:45.536Z,4.10
2023-06-13T11:24:45.537Z,4.70
2023-06-13T11:25:45.519Z,5.50
2023-06-13T11:26:45.518Z,5.70
2023-06-13T11:27:45.492Z,4.30
2023-06-13T11:28:45.479Z,8.50
2023-06-13T11:29:45.489Z,5.50
2023-06-13T11:30:45.617Z,4.80
2023-06-13T11:31:45.539Z,5.30
2023-06-13T11:32:45.484Z,5.70
2023-06-13T11:33:45.442Z,6.60
2023-06-13T11:34:45.455Z,7.70
2023-06-13T11:35:45.447Z,5.90
2023-06-13T11:36:45.450Z,4.10
2023-06-13T11:37:45.622Z,4.70
2023-06-13T11:38:45.433Z,3.90
2023-06-13T11:39:46.771Z,6.90
2023-06-13T11:40:47.412Z,5.40
2023-06-13T11:41:45.448Z,9.40
2023-06-13T11:42:45.422Z,4.40
2023-06-13T11:43:45.418Z,6.00
2023-06-13T11:44:45.436Z,6.30
2023-06-13T11:45:45.410Z,6.70
2023-06-13T11:46:45.472Z,5.90
2023-06-13T11:47:45.498Z,7.90
2023-06-13T11:48:51.605Z,8.00
2023-06-13T11:49:47.396Z,6.80
2023-06-13T11:50:45.371Z,6.70
2023-06-13T11:51:45.393Z,4.70
2023-06-13T11:52:45.432Z,5.00
2023-06-13T11:53:45.326Z,4.90
2023-06-13T11:54:45.366Z,4.80
2023-06-13T11:55:45.373Z,5.50
2023-06-13T11:56:45.305Z,5.90
2023-06-13T11:57:45.337Z,5.20
2023-06-13T11:58:45.297Z,5.00
2023-06-13T11:59:45.300Z,6.50
2023-06-13T12:00:45.366Z,6.60
2023-06-13T12:01:45.435Z,4.80
2023-06-13T12:02:45.617Z,6.80
2023-06-13T12:03:45.361Z,4.50
2023-06-13T12:04:50.055Z,5.40
2023-06-13T12:05:47.312Z,6.50
2023-06-13T12:06:45.246Z,5.90
2023-06-13T12:07:45.271Z,4.70
2023-06-13T12:08:45.262Z,6.20
2023-06-13T12:09:45.222Z,5.60
2023-06-13T12:10:45.922Z,7.50
2023-06-13T12:11:45.221Z,5.10
2023-06-13T12:12:45.225Z,7.30
2023-06-13T12:13:45.236Z,5.20
2023-06-13T12:14:45.305Z,5.80
2023-06-13T12:15:45.174Z,7.90
2023-06-13T12:16:45.192Z,5.00
2023-06-13T12:17:45.592Z,6.40
2023-06-13T12:18:46.161Z,4.90
2023-06-13T12:19:45.312Z,9.20
2023-06-13T12:20:45.140Z,5.80
2023-06-13T12:21:45.198Z,4.90
2023-06-13T12:22:45.114Z,5.50
2023-06-13T12:23:45.173Z,5.10
2023-06-13T12:24:45.204Z,4.80
2023-06-13T12:25:45.104Z,5.00
2023-06-13T12:26:45.189Z,6.10
2023-06-13T12:27:47.056Z,6.20
2023-06-13T12:28:45.147Z,6.90
2023-06-13T12:29:45.133Z,6.30
2023-06-13T12:30:45.134Z,5.10
2023-06-13T12:31:45.160Z,8.50
2023-06-13T12:32:45.352Z,5.90
2023-06-13T12:33:47.028Z,5.40
2023-06-13T12:34:45.117Z,5.60
2023-06-13T12:35:45.073Z,7.20
2023-06-13T12:36:45.125Z,5.70
2023-06-13T12:37:48.379Z,5.60
2023-06-13T12:38:46.204Z,5.90
2023-06-13T12:39:45.107Z,5.60
2023-06-13T12:40:45.020Z,6.00
2023-06-13T12:41:45.035Z,7.70
2023-06-13T12:42:45.180Z,5.60
2023-06-13T12:43:45.157Z,6.30
2023-06-13T12:44:45.135Z,7.80
2023-06-13T12:45:44.991Z,5.20
2023-06-13T12:46:45.064Z,5.90
2023-06-13T12:47:45.173Z,5.10
2023-06-13T12:48:45.116Z,6.90
2023-06-13T12:49:45.916Z,5.40
2023-06-13T12:50:44.953Z,5.30
2023-06-13T12:51:45.994Z,5.60
2023-06-13T12:52:44.940Z,7.60
2023-06-13T12:53:45.065Z,5.00
2023-06-13T12:54:44.987Z,5.60
2023-06-13T12:55:44.975Z,5.90
2023-06-13T12:56:45.343Z,8.70
2023-06-13T12:57:44.934Z,6.80
2023-06-13T12:58:44.931Z,6.30
2023-06-13T12:59:44.916Z,7.30
2023-06-13T13:00:45.066Z,6.00
2023-06-13T13:01:44.951Z,5.70
2023-06-13T13:02:44.934Z,6.40
2023-06-13T13:03:44.908Z,5.50
2023-06-13T13:04:44.921Z,5.60
2023-06-13T13:05:44.877Z,10.50
2023-06-13T13:06:45.220Z,5.60
2023-06-13T13:07:44.882Z,6.60
2023-06-13T13:08:44.915Z,7.80